Time;durP1;ratioP1;P1;durP2;ratioP2;P2;SDS_P1;SDS_P2;PMS_P1;PMS_P2;Temp;Humidity;BMP_temperature;BMP_pressure;BME280_temperature;BME280_humidity;BME280_pressure;Samples;Min_cycle;Max_cycle;Signal;HPM_P1;HPM_P2
2022/03/12 00:02:01;;;;;;;18.40;6.70;;;;;;;-3.41;45.72;101617.89;104140;1277;1003424;-75
2022/03/12 00:04:49;;;;;;;19.40;7.40;;;;;;;-3.44;45.82;101620.30;104858;1276;68437;-75
2022/03/12 00:07:40;;;;;;;19.00;6.90;;;;;;;-3.46;45.90;101617.50;104765;1276;71842;-74
2022/03/12 00:10:33;;;;;;;21.00;6.40;;;;;;;-3.48;46.07;101618.55;104706;1277;59955;-76
2022/03/12 00:13:22;;;;;;;19.00;7.70;;;;;;;-3.49;46.19;101618.19;104807;1273;60299;-75
2022/03/12 00:16:14;;;;;;;20.50;6.80;;;;;;;-3.50;46.17;101619.91;104776;1273;73695;-75
2022/03/12 00:19:05;;;;;;;16.40;6.50;;;;;;;-3.49;46.02;101619.75;105003;1273;68381;-75
2022/03/12 00:21:56;;;;;;;18.10;6.50;;;;;;;-3.48;46.09;101615.07;104735;1273;72949;-74
2022/03/12 00:24:46;;;;;;;17.30;6.40;;;;;;;-3.43;45.36;101612.31;104958;1273;59762;-74
2022/03/12 00:27:35;;;;;;;21.00;6.30;;;;;;;-3.40;45.10;101608.86;104037;1273;1003362;-75
2022/03/12 00:30:24;;;;;;;17.40;5.60;;;;;;;-3.36;44.64;101604.71;104652;1273;73155;-75
2022/03/12 00:33:12;;;;;;;18.50;7.10;;;;;;;-3.32;44.43;101601.96;104328;1273;1003229;-75
2022/03/12 00:36:01;;;;;;;16.60;6.60;;;;;;;-3.30;44.17;101597.80;105052;1274;74518;-75
2022/03/12 00:38:48;;;;;;;16.60;6.40;;;;;;;-3.26;43.97;101598.15;104119;1273;1003140;-75
2022/03/12 00:41:38;;;;;;;19.20;7.40;;;;;;;-3.22;43.59;101597.30;104575;1273;60492;-75
2022/03/12 00:44:25;;;;;;;17.00;6.00;;;;;;;-3.22;43.39;101593.66;104972;1273;72311;-74
2022/03/12 00:47:14;;;;;;;15.90;5.90;;;;;;;-3.21;43.52;101591.23;105016;1276;69075;-75
2022/03/12 00:50:02;;;;;;;16.00;6.20;;;;;;;-3.23;43.52;101588.27;105311;1274;71778;-75
2022/03/12 00:52:50;;;;;;;19.10;7.30;;;;;;;-3.24;43.25;101591.56;104538;1274;1002991;-75
2022/03/12 00:55:37;;;;;;;17.30;6.50;;;;;;;-3.25;43.26;101587.91;105260;1273;1003154;-75
2022/03/12 00:58:24;;;;;;;18.40;6.70;;;;;;;-3.24;43.09;101590.54;105962;1273;73678;-75
2022/03/12 01:01:13;;;;;;;17.80;6.10;;;;;;;-3.23;42.95;101587.58;105678;1274;1003471;-75
2022/03/12 01:04:02;;;;;;;16.90;5.40;;;;;;;-3.22;42.94;101590.88;106261;1276;71026;-74
2022/03/12 01:06:49;;;;;;;20.40;7.80;;;;;;;-3.21;42.83;101591.06;105637;1277;1003070;-75
2022/03/12 01:09:40;;;;;;;17.60;7.30;;;;;;;-3.21;42.54;101587.75;105565;1276;1003626;-76
2022/03/12 01:12:27;;;;;;;16.60;6.40;;;;;;;-3.19;42.73;101588.64;105628;1277;1002873;-75
2022/03/12 01:15:20;;;;;;;15.30;5.60;;;;;;;-3.17;42.58;101588.46;105670;1276;1002798;-75
2022/03/12 01:18:22;;;;;;;18.60;5.90;;;;;;;-3.17;42.42;101587.60;106178;1277;72095;-74
2022/03/12 01:21:20;;;;;;;17.00;6.30;;;;;;;-3.15;42.18;101587.61;106296;1276;59542;-76
2022/03/12 01:24:08;;;;;;;15.00;4.90;;;;;;;-3.13;42.18;101583.45;105322;1276;1003886;-75
2022/03/12 01:26:57;;;;;;;18.40;6.20;;;;;;;-3.16;42.17;101573.02;106088;1277;71646;-73
2022/03/12 01:29:45;;;;;;;15.70;5.40;;;;;;;-3.13;42.29;101578.23;106249;1276;68116;-75
2022/03/12 01:32:36;;;;;;;12.80;5.40;;;;;;;-3.11;41.91;101577.89;105423;1277;1003268;-75
2022/03/12 01:35:24;;;;;;;14.00;5.80;;;;;;;-3.10;42.07;101576.34;105375;1273;1003466;-75
2022/03/12 01:38:13;;;;;;;15.80;5.60;;;;;;;-3.14;41.90;101568.34;106514;1274;60973;-75
2022/03/12 01:41:06;;;;;;;13.30;5.30;;;;;;;-3.12;41.88;101575.81;106143;1273;70758;-74
2022/03/12 01:43:54;;;;;;;14.70;5.70;;;;;;;-3.12;41.90;101580.66;106300;1273;66501;-75
2022/03/12 01:46:47;;;;;;;16.80;6.20;;;;;;;-3.14;41.92;101582.57;105677;1273;1003687;-76
2022/03/12 01:49:37;;;;;;;12.60;4.80;;;;;;;-3.16;42.20;101579.44;106221;1273;59720;-76
2022/03/12 01:52:25;;;;;;;14.60;4.90;;;;;;;-3.19;42.38;101582.89;106545;1273;59773;-76
2022/03/12 01:55:13;;;;;;;14.20;5.60;;;;;;;-3.23;42.47;101579.23;106326;1274;72385;-74
2022/03/12 01:58:03;;;;;;;14.60;6.30;;;;;;;-3.27;42.58;101576.98;106407;1273;66936;-75
2022/03/12 02:00:53;;;;;;;15.20;5.90;;;;;;;-3.30;42.59;101575.75;106344;1273;72993;-74
2022/03/12 02:03:42;;;;;;;14.40;5.10;;;;;;;-3.33;43.00;101574.35;106264;1273;59556;-75
2022/03/12 02:06:29;;;;;;;15.00;5.70;;;;;;;-3.35;42.98;101569.13;105674;1273;1003194;-76
2022/03/12 02:09:18;;;;;;;16.70;5.80;;;;;;;-3.36;42.93;101569.13;105716;1273;1003236;-76
2022/03/12 02:12:07;;;;;;;18.50;6.00;;;;;;;-3.38;43.09;101561.83;106660;1273;68043;-74
2022/03/12 02:14:54;;;;;;;15.70;6.20;;;;;;;-3.38;42.88;101558.88;105683;1274;1003829;-74
2022/03/12 02:17:41;;;;;;;17.20;6.30;;;;;;;-3.40;43.04;101554.52;105985;1274;59607;-75
2022/03/12 02:20:29;;;;;;;13.90;5.90;;;;;;;-3.39;42.99;101553.33;104948;1274;59669;-75
2022/03/12 02:23:16;;;;;;;17.60;5.70;;;;;;;-3.39;42.94;101545.85;105525;1274;73372;-74
2022/03/12 02:26:04;;;;;;;12.60;4.70;;;;;;;-3.39;42.95;101544.81;105381;1273;67820;-74
2022/03/12 02:28:52;;;;;;;18.80;6.10;;;;;;;-3.38;42.85;101541.17;105090;1276;72001;-74
2022/03/12 02:31:48;;;;;;;17.00;5.40;;;;;;;-3.38;42.74;101539.60;104085;1274;1002588;-74
2022/03/12 02:34:50;;;;;;;16.00;5.30;;;;;;;-3.36;42.81;101535.11;105084;1273;59868;-75
2022/03/12 02:37:45;;;;;;;17.80;6.40;;;;;;;-3.37;42.86;101530.77;105388;1273;71914;-75
2022/03/12 02:40:33;;;;;;;18.30;6.20;;;;;;;-3.36;42.88;101534.93;105509;1275;66496;-75
2022/03/12 02:43:26;;;;;;;20.00;6.50;;;;;;;-3.38;43.12;101534.05;105264;1273;71814;-75
2022/03/12 02:46:14;;;;;;;19.10;7.00;;;;;;;-3.40;43.15;101531.10;105396;1274;59695;-75
2022/03/12 02:49:02;;;;;;;21.80;8.30;;;;;;;-3.43;43.23;101531.09;105004;1274;60270;-75
2022/03/12 02:51:50;;;;;;;23.90;7.20;;;;;;;-3.46;43.44;101531.77;103430;1273;1003854;-74
2022/03/12 02:54:37;;;;;;;16.60;6.90;;;;;;;-3.49;43.53;101530.55;104742;1274;66928;-74
2022/03/12 02:57:27;;;;;;;22.00;7.60;;;;;;;-3.53;43.58;101530.54;104867;1273;72038;-74
2022/03/12 03:00:18;;;;;;;17.70;6.20;;;;;;;-3.55;43.55;101530.35;105298;1274;59674;-74
2022/03/12 03:03:06;;;;;;;18.40;6.60;;;;;;;-3.57;43.53;101532.08;105177;1274;60582;-74
2022/03/12 03:05:55;;;;;;;16.60;6.00;;;;;;;-3.58;43.67;101536.77;105007;1273;72468;-75
2022/03/12 03:08:46;;;;;;;21.90;6.80;;;;;;;-3.60;43.62;101537.09;104749;1273;68204;-75
2022/03/12 03:11:39;;;;;;;19.00;6.30;;;;;;;-3.62;43.87;101535.52;104191;1273;1003037;-75
2022/03/12 03:14:27;;;;;;;17.70;6.20;;;;;;;-3.64;43.65;101539.34;104683;1273;59745;-73
2022/03/12 03:17:15;;;;;;;16.10;6.30;;;;;;;-3.66;43.81;101539.31;104809;1273;60713;-75
2022/03/12 03:20:03;;;;;;;16.70;6.60;;;;;;;-3.66;44.02;101540.20;103854;1273;1002959;-74
2022/03/12 03:22:51;;;;;;;17.40;6.60;;;;;;;-3.66;43.94;101536.55;105144;1274;67466;-74
2022/03/12 03:25:40;;;;;;;15.90;6.10;;;;;;;-3.67;43.81;101532.56;104728;1273;71695;-75
2022/03/12 03:28:29;;;;;;;13.80;5.60;;;;;;;-3.68;44.14;101529.60;105263;1274;59718;-72
2022/03/12 03:31:18;;;;;;;17.50;6.40;;;;;;;-3.68;44.18;101534.98;104803;1274;59590;-74
2022/03/12 03:34:08;;;;;;;12.60;5.00;;;;;;;-3.69;44.29;101534.11;104858;1276;73504;-74
2022/03/12 03:36:56;;;;;;;20.20;7.00;;;;;;;-3.69;44.02;101530.81;104921;1274;69127;-75
2022/03/12 03:39:45;;;;;;;16.40;6.30;;;;;;;-3.67;44.13;101533.61;104380;1274;1002982;-74
2022/03/12 03:42:33;;;;;;;17.00;5.50;;;;;;;-3.67;43.99;101531.70;104701;1274;59687;-72
2022/03/12 03:45:27;;;;;;;13.10;4.80;;;;;;;-3.65;43.91;101529.96;104006;1274;1003250;-74
2022/03/12 03:48:21;;;;;;;16.50;5.60;;;;;;;-3.64;43.62;101527.20;104233;1275;1003380;-73
2022/03/12 03:51:09;;;;;;;13.90;5.20;;;;;;;-3.62;43.65;101523.91;105002;1275;68004;-74
2022/03/12 03:53:56;;;;;;;15.20;5.90;;;;;;;-3.61;43.40;101524.27;104875;1275;73043;-73
2022/03/12 03:56:46;;;;;;;17.40;5.40;;;;;;;-3.61;43.34;101524.77;104978;1274;59959;-73
2022/03/12 03:59:33;;;;;;;15.90;5.30;;;;;;;-3.59;43.42;101521.31;104963;1274;59672;-74
2022/03/12 04:02:21;;;;;;;16.50;5.90;;;;;;;-3.59;43.21;101524.96;104800;1275;73743;-74
2022/03/12 04:05:09;;;;;;;11.90;4.70;;;;;;;-3.60;43.10;101521.13;104880;1274;66050;-74
2022/03/12 04:07:58;;;;;;;13.80;5.10;;;;;;;-3.59;42.95;101522.52;104815;1274;73388;-74
2022/03/12 04:10:45;;;;;;;17.10;6.40;;;;;;;-3.57;42.82;101515.42;104801;1274;59689;-74
2022/03/12 04:13:34;;;;;;;15.70;4.70;;;;;;;-3.55;43.00;101515.09;104309;1273;1003082;-73
2022/03/12 04:16:22;;;;;;;13.50;5.20;;;;;;;-3.53;42.85;101511.80;104894;1274;73449;-73
2022/03/12 04:19:11;;;;;;;13.60;4.80;;;;;;;-3.50;42.35;101515.62;104560;1274;68011;-74
2022/03/12 04:21:58;;;;;;;15.20;5.40;;;;;;;-3.50;42.42;101511.13;104888;1274;73165;-74
2022/03/12 04:24:45;;;;;;;17.20;5.90;;;;;;;-3.47;42.34;101512.84;104559;1275;59857;-75
2022/03/12 04:27:34;;;;;;;13.90;5.10;;;;;;;-3.47;41.99;101510.25;104310;1274;1003001;-73
2022/03/12 04:30:22;;;;;;;13.40;5.50;;;;;;;-3.47;42.53;101511.46;104706;1275;73089;-74
2022/03/12 04:33:12;;;;;;;19.80;5.80;;;;;;;-3.48;42.61;101512.33;104692;1275;68126;-74
2022/03/12 04:36:02;;;;;;;15.90;5.10;;;;;;;-3.51;42.40;101510.24;104851;1275;71738;-73
2022/03/12 04:38:49;;;;;;;17.70;5.30;;;;;;;-3.52;42.46;101512.15;104970;1274;60523;-74
2022/03/12 04:41:44;;;;;;;13.60;4.60;;;;;;;-3.54;42.49;101511.10;105164;1274;60517;-75
2022/03/12 04:44:31;;;;;;;15.50;5.30;;;;;;;-3.58;42.61;101507.09;106279;1272;72028;-74
2022/03/12 04:47:22;;;;;;;16.30;6.60;;;;;;;-3.56;42.48;101515.26;104817;1274;66711;-73
2022/03/12 04:50:14;;;;;;;13.90;5.20;;;;;;;-3.57;42.52;101511.77;105051;1274;73207;-73
2022/03/12 04:53:02;;;;;;;13.40;4.90;;;;;;;-3.57;42.59;101512.64;104857;1274;59681;-74
2022/03/12 04:55:50;;;;;;;14.90;5.50;;;;;;;-3.58;42.50;101511.42;104305;1274;1004241;-74
2022/03/12 04:58:38;;;;;;;17.50;6.20;;;;;;;-3.59;42.36;101517.14;105119;1274;72301;-75
2022/03/12 05:01:25;;;;;;;14.50;5.80;;;;;;;-3.61;42.53;101517.48;104930;1274;68114;-74
2022/03/12 05:04:13;;;;;;;19.10;5.30;;;;;;;-3.62;42.36;101518.53;105062;1274;73236;-75
2022/03/12 05:07:15;;;;;;;14.10;5.40;;;;;;;-3.64;42.69;101516.96;105145;1274;59785;-74
2022/03/12 05:10:07;;;;;;;21.00;6.50;;;;;;;-3.65;42.70;101517.81;104755;1274;1003131;-74
2022/03/12 05:13:00;;;;;;;20.10;6.10;;;;;;;-3.67;42.84;101517.46;105023;1274;72388;-74
2022/03/12 05:15:47;;;;;;;13.80;5.80;;;;;;;-3.69;42.98;101514.52;105082;1274;68896;-72
2022/03/12 05:18:40;;;;;;;18.70;6.30;;;;;;;-3.70;42.95;101516.92;104066;1274;1003029;-75
2022/03/12 05:21:28;;;;;;;16.70;6.20;;;;;;;-3.71;43.18;101519.88;104925;1274;59663;-74
2022/03/12 05:24:15;;;;;;;16.40;5.30;;;;;;;-3.74;43.17;101521.05;104193;1275;1002695;-73
2022/03/12 05:27:04;;;;;;;19.30;7.40;;;;;;;-3.73;43.41;101522.46;104826;1274;73207;-74
2022/03/12 05:29:54;;;;;;;18.10;6.40;;;;;;;-3.74;43.38;101520.90;105307;1273;66179;-72
2022/03/12 05:32:41;;;;;;;19.20;6.60;;;;;;;-3.75;43.83;101529.40;104823;1274;73030;-75
2022/03/12 05:35:28;;;;;;;16.90;5.70;;;;;;;-3.73;43.69;101533.74;105077;1274;59719;-74
2022/03/12 05:38:15;;;;;;;18.00;6.80;;;;;;;-3.73;43.74;101536.17;105004;1274;59732;-75
2022/03/12 05:41:12;;;;;;;22.00;7.00;;;;;;;-3.74;43.82;101533.57;104264;1275;1002791;-73
2022/03/12 05:44:00;;;;;;;16.80;5.80;;;;;;;-3.76;43.81;101535.47;104379;1274;1003677;-74
2022/03/12 05:46:48;;;;;;;18.10;6.30;;;;;;;-3.74;43.79;101530.79;105019;1274;73338;-74
2022/03/12 05:49:36;;;;;;;21.50;8.10;;;;;;;-3.72;43.89;101534.44;104952;1274;59684;-76
2022/03/12 05:52:26;;;;;;;17.80;6.50;;;;;;;-3.71;43.89;101533.75;105096;1275;59782;-74
2022/03/12 05:55:14;;;;;;;20.70;6.40;;;;;;;-3.69;43.65;101534.80;104238;1275;1003564;-75
2022/03/12 05:58:03;;;;;;;20.30;7.70;;;;;;;-3.66;43.63;101537.41;104757;1274;67976;-74
2022/03/12 06:00:54;;;;;;;20.80;7.10;;;;;;;-3.63;43.90;101534.84;104353;1274;1004071;-73
2022/03/12 06:03:41;;;;;;;20.80;6.50;;;;;;;-3.59;43.70;101537.79;104921;1274;59700;-74
2022/03/12 06:06:30;;;;;;;20.10;8.10;;;;;;;-3.56;43.74;101536.42;104173;1274;1002931;-73
2022/03/12 06:09:17;;;;;;;21.90;8.00;;;;;;;-3.53;43.68;101535.91;104761;1274;73144;-74
2022/03/12 06:12:09;;;;;;;16.80;5.80;;;;;;;-3.49;43.18;101532.28;105257;1274;68178;-72
2022/03/12 06:14:57;;;;;;;17.00;6.00;;;;;;;-3.45;43.23;101533.34;104732;1273;73108;-74
2022/03/12 06:17:46;;;;;;;17.90;6.00;;;;;;;-3.38;43.07;101537.88;104147;1276;1003710;-74
2022/03/12 06:20:37;;;;;;;21.70;8.10;;;;;;;-3.33;42.91;101534.24;105129;1274;59670;-72
2022/03/12 06:23:25;;;;;;;23.50;7.60;;;;;;;-3.27;42.75;101527.84;104907;1274;73437;-73
2022/03/12 06:26:14;;;;;;;23.30;7.80;;;;;;;-3.18;42.48;101528.20;105067;1274;67968;-73
2022/03/12 06:29:04;;;;;;;19.30;7.00;;;;;;;-3.10;42.17;101527.55;104409;1274;1003119;-74
2022/03/12 06:31:52;;;;;;;22.60;7.80;;;;;;;-3.01;41.72;101521.98;105146;1274;59878;-72
2022/03/12 06:34:42;;;;;;;23.80;8.60;;;;;;;-2.92;41.48;101513.66;104805;1274;59663;-74
2022/03/12 06:37:30;;;;;;;22.50;7.10;;;;;;;-2.80;41.23;101509.52;105097;1273;73785;-73
2022/03/12 06:40:18;;;;;;;22.30;8.60;;;;;;;-2.70;40.93;101502.40;105164;1273;68152;-73
2022/03/12 06:43:07;;;;;;;21.20;8.00;;;;;;;-2.59;40.71;101498.58;104309;1275;1003379;-74
2022/03/12 06:45:58;;;;;;;21.40;7.70;;;;;;;-2.47;40.35;101503.95;104463;1273;1003873;-73
2022/03/12 06:48:45;;;;;;;19.10;7.30;;;;;;;-2.38;40.05;101503.59;105107;1274;59674;-74
2022/03/12 06:51:33;;;;;;;25.70;8.70;;;;;;;-2.26;39.59;101500.27;104939;1273;71383;-74
2022/03/12 06:54:22;;;;;;;22.70;8.90;;;;;;;-2.10;39.14;101501.11;105288;1273;66728;-74
2022/03/12 06:57:10;;;;;;;18.70;7.20;;;;;;;-1.95;38.63;101503.15;105125;1274;73192;-74
2022/03/12 06:59:57;;;;;;;16.90;7.70;;;;;;;-1.75;38.36;101504.31;104165;1273;1003137;-75
2022/03/12 07:02:44;;;;;;;21.70;7.80;;;;;;;-1.54;38.10;101502.30;104774;1273;61066;-76
2022/03/12 07:05:31;;;;;;;18.40;7.20;;;;;;;-1.26;37.37;101505.81;105148;1273;73357;-75
2022/03/12 07:08:19;;;;;;;20.70;8.50;;;;;;;-0.48;36.09;101502.62;104976;1274;68218;-74
2022/03/12 07:11:06;;;;;;;20.20;8.00;;;;;;;1.71;32.71;101501.57;105076;1273;71598;-75
2022/03/12 07:13:57;;;;;;;19.80;8.50;;;;;;;3.63;28.95;101492.17;105188;1273;59640;-75
2022/03/12 07:16:46;;;;;;;19.00;8.70;;;;;;;5.14;27.17;101489.56;104917;1273;61028;-75
2022/03/12 07:19:33;;;;;;;18.30;8.00;;;;;;;6.17;24.81;101492.59;104785;1273;73272;-76
2022/03/12 07:22:21;;;;;;;17.10;8.40;;;;;;;7.09;23.53;101490.16;104760;1274;66587;-74
2022/03/12 07:25:13;;;;;;;17.60;8.10;;;;;;;8.12;22.73;101485.59;104721;1274;71899;-75
2022/03/12 07:28:04;;;;;;;17.10;7.80;;;;;;;9.17;21.24;101481.09;105145;1274;59781;-75
2022/03/12 07:30:54;;;;;;;21.50;8.70;;;;;;;9.91;20.69;101475.58;104919;1273;59413;-75
2022/03/12 07:33:51;;;;;;;16.60;8.20;;;;;;;10.76;19.69;101472.96;105365;1273;72393;-76
2022/03/12 07:36:52;;;;;;;14.60;6.60;;;;;;;11.34;18.68;101463.10;105424;1274;67224;-75
2022/03/12 07:39:41;;;;;;;21.70;9.20;;;;;;;11.64;18.01;101465.45;105298;1273;72595;-77
2022/03/12 07:42:28;;;;;;;25.00;13.70;;;;;;;12.10;17.83;101465.16;104870;1274;59952;-76
2022/03/12 07:45:19;;;;;;;18.50;8.10;;;;;;;12.71;17.45;101461.13;104673;1277;59575;-76
2022/03/12 07:48:07;;;;;;;16.30;7.60;;;;;;;13.65;17.20;101456.89;104576;1277;73363;-77
2022/03/12 07:51:17;;;;;;;16.80;7.80;;;;;;;13.96;15.68;101450.84;104984;1277;66022;-77
2022/03/12 07:54:07;;;;;;;19.30;7.60;;;;;;;14.34;15.69;101444.48;104505;1277;72648;-77
2022/03/12 07:56:57;;;;;;;14.70;7.60;;;;;;;14.99;15.35;101438.33;105062;1276;59666;-76
2022/03/12 07:59:44;;;;;;;15.00;7.30;;;;;;;14.81;14.60;101435.19;104863;1277;59843;-76
2022/03/12 08:02:33;;;;;;;16.50;7.40;;;;;;;14.25;14.74;101433.31;104804;1277;73446;-77
2022/03/12 08:05:24;;;;;;;17.20;7.60;;;;;;;14.35;14.46;101436.34;104809;1276;67002;-76
2022/03/12 08:08:18;;;;;;;16.20;7.20;;;;;;;14.61;14.45;101436.62;105208;1277;71957;-76
2022/03/12 08:11:25;;;;;;;18.10;7.60;;;;;;;14.98;14.31;101428.38;104508;1276;59768;-77
2022/03/12 08:14:16;;;;;;;17.90;8.40;;;;;;;15.26;13.95;101430.20;104666;1277;60419;-77
2022/03/12 08:17:05;;;;;;;19.10;8.60;;;;;;;15.25;14.25;101434.02;105065;1274;73900;-77
2022/03/12 08:19:53;;;;;;;17.20;8.00;;;;;;;15.46;14.20;101430.70;105162;1273;68119;-76
2022/03/12 08:22:45;;;;;;;18.70;8.90;;;;;;;16.14;14.21;101435.45;104912;1274;524226;-77
2022/03/12 08:25:36;;;;;;;17.40;8.80;;;;;;;16.45;13.49;101432.61;105220;1274;59754;-77
2022/03/12 08:28:23;;;;;;;16.10;8.10;;;;;;;16.83;13.31;101431.66;104879;1273;59634;-76
2022/03/12 08:31:12;;;;;;;18.40;9.40;;;;;;;17.09;12.89;101428.48;104805;1274;72429;-77
2022/03/12 08:34:01;;;;;;;17.90;8.60;;;;;;;16.99;12.84;101419.98;105005;1273;67369;-77
2022/03/12 08:36:49;;;;;;;20.10;8.50;;;;;;;17.44;12.72;101415.33;104951;1274;72144;-76
2022/03/12 08:39:36;;;;;;;16.70;8.50;;;;;;;17.52;12.12;101418.39;104607;1273;59897;-77
2022/03/12 08:42:24;;;;;;;15.70;7.60;;;;;;;17.62;12.23;101418.62;104706;1273;59554;-77
2022/03/12 08:45:12;;;;;;;17.10;7.60;;;;;;;17.42;11.91;101418.52;105135;1273;73069;-77
2022/03/12 08:47:59;;;;;;;16.50;7.00;;;;;;;17.06;12.05;101419.91;105115;1273;66645;-77
2022/03/12 08:50:47;;;;;;;15.60;6.60;;;;;;;17.06;12.31;101418.27;104959;1274;71458;-78
2022/03/12 08:53:35;;;;;;;16.00;7.40;;;;;;;17.37;12.23;101418.23;104756;1273;59682;-78
2022/03/12 08:56:22;;;;;;;17.60;8.20;;;;;;;17.42;12.01;101414.02;104849;1273;59792;-77
2022/03/12 08:59:10;;;;;;;16.70;7.50;;;;;;;17.91;11.89;101412.73;105006;1273;72011;-77
2022/03/12 09:01:58;;;;;;;15.30;7.30;;;;;;;18.43;11.46;101410.09;104731;1274;68226;-77
2022/03/12 09:04:47;;;;;;;14.80;6.80;;;;;;;18.76;11.24;101403.54;104857;1274;72919;-77
2022/03/12 09:07:34;;;;;;;15.20;7.30;;;;;;;19.26;10.87;101400.82;105692;1273;59794;-77
2022/03/12 09:10:23;;;;;;;16.60;7.10;;;;;;;19.67;10.64;101395.50;105084;1273;59775;-77
2022/03/12 09:13:13;;;;;;;17.40;7.40;;;;;;;19.13;10.55;101401.30;104827;1274;71266;-77
2022/03/12 09:16:00;;;;;;;17.50;7.70;;;;;;;18.83;10.94;101398.95;104901;1273;66149;-78
2022/03/12 09:18:47;;;;;;;19.10;7.50;;;;;;;18.81;10.99;101402.21;104821;1272;72958;-78
2022/03/12 09:21:35;;;;;;;16.40;8.10;;;;;;;18.59;11.05;101402.55;104813;1273;59741;-78
2022/03/12 09:24:23;;;;;;;13.70;6.50;;;;;;;18.80;10.91;101405.36;105095;1273;59878;-78
2022/03/12 09:27:13;;;;;;;15.40;7.30;;;;;;;18.91;10.78;101403.87;105074;1273;73257;-78
2022/03/12 09:30:11;;;;;;;14.70;6.60;;;;;;;19.24;10.86;101400.78;105737;1273;68502;-77
2022/03/12 09:33:06;;;;;;;15.60;6.90;;;;;;;19.60;10.61;101397.39;106075;1273;71462;-78
2022/03/12 09:35:54;;;;;;;17.30;8.90;;;;;;;20.13;10.56;101395.64;105079;1273;59791;-78
2022/03/12 09:38:52;;;;;;;14.70;7.20;;;;;;;20.65;10.30;101393.81;105900;1273;59676;-77
2022/03/12 09:41:45;;;;;;;13.30;6.10;;;;;;;20.70;9.60;101395.77;105635;1273;73499;-79
2022/03/12 09:44:33;;;;;;;11.90;5.10;;;;;;;20.76;9.09;101393.07;105323;1273;67016;-79
2022/03/12 09:47:23;;;;;;;14.00;6.10;;;;;;;20.68;9.52;101393.52;105388;1274;72775;-79
2022/03/12 09:50:11;;;;;;;11.50;5.20;;;;;;;20.99;9.25;101386.61;105209;1274;59790;-79
2022/03/12 09:52:58;;;;;;;12.50;5.00;;;;;;;21.37;8.81;101383.85;105058;1273;60529;-79
2022/03/12 09:55:50;;;;;;;13.80;6.00;;;;;;;21.64;9.01;101383.77;105716;1273;73557;-79
2022/03/12 09:58:45;;;;;;;10.70;4.90;;;;;;;22.04;8.71;101377.85;105966;1273;66979;-79
2022/03/12 10:01:37;;;;;;;11.20;4.80;;;;;;;22.05;7.81;101383.16;105497;1273;72173;-79
2022/03/12 10:04:24;;;;;;;11.40;5.10;;;;;;;22.21;7.95;101379.52;104995;1274;59710;-79
2022/03/12 10:07:13;;;;;;;10.80;4.10;;;;;;;22.35;7.44;101375.97;105182;1274;60532;-78
2022/03/12 10:10:01;;;;;;;11.30;5.20;;;;;;;22.37;7.14;101366.40;105104;1273;72131;-79
2022/03/12 10:12:52;;;;;;;9.70;4.40;;;;;;;22.29;7.43;101372.84;105146;1273;68181;-79
2022/03/12 10:15:42;;;;;;;9.80;4.20;;;;;;;22.22;7.36;101362.89;105084;1273;73045;-79
2022/03/12 10:18:31;;;;;;;10.80;5.00;;;;;;;22.67;7.42;101361.55;104796;1273;59670;-79
2022/03/12 10:21:20;;;;;;;11.70;5.00;;;;;;;22.96;7.15;101357.98;105345;1273;60528;-79
2022/03/12 10:24:10;;;;;;;11.40;5.30;;;;;;;23.49;7.33;101361.11;105353;1273;72248;-79
2022/03/12 10:26:58;;;;;;;10.40;4.90;;;;;;;23.64;6.97;101370.04;105162;1273;66722;-79
2022/03/12 10:29:49;;;;;;;10.60;5.70;;;;;;;23.28;6.60;101370.61;105036;1273;72309;-79
2022/03/12 10:32:46;;;;;;;11.90;5.30;;;;;;;23.12;6.97;101364.77;105105;1273;59711;-79
2022/03/12 10:35:40;;;;;;;12.10;5.00;;;;;;;23.07;6.95;101364.64;105301;1274;59571;-79
2022/03/12 10:38:42;;;;;;;11.50;5.10;;;;;;;22.81;7.41;101359.97;105351;1274;73523;-79
2022/03/12 10:41:30;;;;;;;10.10;4.50;;;;;;;22.95;7.70;101351.76;105445;1276;67691;-80
2022/03/12 10:44:22;;;;;;;13.10;4.50;;;;;;;23.32;7.06;101349.23;105195;1274;71433;-79
2022/03/12 10:47:22;;;;;;;11.60;4.40;;;;;;;23.05;6.76;101350.54;105087;1274;59994;-79
2022/03/12 10:50:15;;;;;;;11.50;4.40;;;;;;;22.69;6.79;101356.08;105490;1274;59691;-79
2022/03/12 10:53:06;;;;;;;9.70;4.10;;;;;;;22.17;6.57;101356.21;105102;1274;73394;-80
2022/03/12 10:55:53;;;;;;;12.00;4.60;;;;;;;22.30;6.89;101348.71;105272;1274;66277;-79
2022/03/12 10:58:44;;;;;;;10.20;4.40;;;;;;;22.81;6.80;101349.04;104959;1274;72988;-80
2022/03/12 11:01:31;;;;;;;11.00;4.30;;;;;;;23.49;6.94;101348.41;105043;1274;59651;-81
2022/03/12 11:04:29;;;;;;;10.20;4.50;;;;;;;23.88;6.91;101343.75;105077;1274;59629;-79
2022/03/12 11:07:28;;;;;;;10.30;5.60;;;;;;;23.85;6.31;101344.53;105216;1274;73421;-79
2022/03/12 11:10:32;;;;;;;10.10;4.60;;;;;;;23.45;6.58;101336.19;105058;1274;67991;-79
2022/03/12 11:13:47;;;;;;;11.90;4.40;;;;;;;23.33;6.81;101328.27;105098;1273;71599;-79
2022/03/12 11:16:35;;;;;;;9.30;3.80;;;;;;;23.61;6.89;101325.29;105500;1273;59671;-79
2022/03/12 11:19:37;;;;;;;10.70;4.10;;;;;;;23.29;6.66;101323.58;104921;1273;60778;-77
2022/03/12 11:22:28;;;;;;;10.50;4.90;;;;;;;22.44;6.94;101324.04;105107;1273;72572;-79
2022/03/12 11:25:23;;;;;;;10.00;4.70;;;;;;;22.65;7.34;101321.90;105165;1273;65920;-80
2022/03/12 11:28:18;;;;;;;17.60;7.10;;;;;;;22.71;7.82;101318.45;105094;1273;72958;-79
2022/03/12 11:31:07;;;;;;;13.30;5.80;;;;;;;22.32;8.14;101315.73;105181;1273;59717;-78
2022/03/12 11:33:57;;;;;;;10.80;5.30;;;;;;;22.14;7.84;101312.29;105150;1273;59693;-77
2022/03/12 11:36:45;;;;;;;14.60;6.90;;;;;;;22.25;8.36;101314.69;105268;1273;73380;-79
2022/03/12 11:39:45;;;;;;;17.80;8.90;;;;;;;22.31;9.40;101311.73;105146;1273;67035;-78
2022/03/12 11:42:34;;;;;;;17.60;9.30;;;;;;;22.03;10.13;101308.50;105515;1273;72834;-79
2022/03/12 11:45:21;;;;;;;18.50;8.90;;;;;;;21.72;10.30;101308.41;105143;1273;59666;-78
2022/03/12 11:48:09;;;;;;;19.60;10.00;;;;;;;21.45;10.57;101306.67;105325;1271;60999;-78
2022/03/12 11:51:00;;;;;;;18.60;9.40;;;;;;;21.24;10.97;101304.34;105308;1273;72694;-80
2022/03/12 11:53:48;;;;;;;20.20;10.10;;;;;;;21.09;11.17;101306.99;105184;1274;66746;-78
2022/03/12 11:56:37;;;;;;;22.50;9.70;;;;;;;20.79;10.98;101307.52;105164;1273;73234;-79
2022/03/12 11:59:26;;;;;;;22.70;10.60;;;;;;;20.60;11.42;101306.23;104792;1273;59569;-78
2022/03/12 12:02:35;;;;;;;22.00;10.00;;;;;;;20.45;11.44;101304.38;105200;1274;61126;-78
2022/03/12 12:05:28;;;;;;;16.20;8.50;;;;;;;20.18;11.62;101305.61;105174;1273;73368;-78
2022/03/12 12:08:24;;;;;;;17.60;8.10;;;;;;;19.66;11.41;101300.23;105163;1273;67146;-78
2022/03/12 12:11:14;;;;;;;18.10;8.60;;;;;;;19.37;11.92;101298.27;104818;1273;72362;-78
2022/03/12 12:14:01;;;;;;;17.10;8.10;;;;;;;19.14;11.70;101296.29;104964;1273;60034;-78
2022/03/12 12:16:48;;;;;;;18.60;8.00;;;;;;;18.90;11.72;101285.08;105089;1273;61083;-79
2022/03/12 12:19:37;;;;;;;18.50;8.80;;;;;;;18.72;12.29;101292.98;104713;1273;72234;-79
2022/03/12 12:22:24;;;;;;;20.00;9.50;;;;;;;18.48;12.47;101290.15;105227;1273;68108;-78
2022/03/12 12:25:15;;;;;;;17.90;8.30;;;;;;;18.38;12.90;101286.07;104814;1273;73587;-77
2022/03/12 12:28:20;;;;;;;16.40;8.50;;;;;;;18.30;13.11;101286.48;104975;1273;59805;-78
2022/03/12 12:31:26;;;;;;;18.60;9.20;;;;;;;17.92;12.93;101281.55;104957;1273;59439;-78
2022/03/12 12:34:15;;;;;;;14.20;6.50;;;;;;;17.55;12.75;101281.23;105119;1273;73140;-78
2022/03/12 12:37:04;;;;;;;14.80;6.50;;;;;;;16.99;11.95;101277.05;104898;1273;68143;-77
2022/03/12 12:40:36;;;;;;;15.50;7.50;;;;;;;16.54;13.13;101275.33;104624;1273;71543;-76
2022/03/12 12:43:33;;;;;;;20.20;8.40;;;;;;;15.69;14.25;101276.48;105249;1273;59733;-76
2022/03/12 12:46:20;;;;;;;16.40;7.60;;;;;;;14.99;14.80;101272.16;104948;1273;60585;-78
2022/03/12 12:49:08;;;;;;;17.90;8.20;;;;;;;14.49;15.28;101271.73;105044;1273;73999;-78
2022/03/12 12:51:58;;;;;;;18.50;8.90;;;;;;;14.06;16.41;101273.46;104956;1273;68508;-76
2022/03/12 12:54:59;;;;;;;19.20;8.50;;;;;;;13.67;17.13;101277.38;104068;1273;1003477;-77